Aviation Digital Data Service (ADDS)

Output produced by METARs form (2256 UTC 27 January 2015)
found at http://www.aviationweather.gov/adds/metars/
 
KCRQ 272253Z 28006KT 10SM CLR 19/12 A3014 RMK AO2 SLP205 T01890117
KCRQ 272153Z 28006KT 10SM CLR 19/12 A3013 RMK AO2 SLP202 T01940117
KCRQ 272053Z AUTO 26009KT 10SM CLR 19/12 A3013 RMK AO2 SLP202 T01940117 58016
KCRQ 271953Z AUTO VRB03KT 10SM CLR 21/09 A3014 RMK AO2 SLP205 T02110089
KCRQ 271730Z 2718/2818 26006KT P6SM SCT080 
     FM280100 VRB04KT P6SM SCT250